sensor_id;sensor_type;location;lat;lon;timestamp;P1;durP1;ratioP1;P2;durP2;ratioP2
19605;SDS011;9950;50.168;8.210;2023-04-24T00:00:54;2.53;;;2.10;;
19605;SDS011;9950;50.168;8.210;2023-04-24T00:03:22;3.83;;;2.58;;
19605;SDS011;9950;50.168;8.210;2023-04-24T00:05:49;3.03;;;2.70;;
19605;SDS011;9950;50.168;8.210;2023-04-24T00:08:17;4.03;;;2.45;;
19605;SDS011;9950;50.168;8.210;2023-04-24T00:10:45;4.88;;;2.47;;
19605;SDS011;9950;50.168;8.210;2023-04-24T00:13:12;5.55;;;2.90;;
19605;SDS011;9950;50.168;8.210;2023-04-24T00:15:40;4.53;;;2.78;;
19605;SDS011;9950;50.168;8.210;2023-04-24T00:18:08;5.88;;;3.42;;
19605;SDS011;9950;50.168;8.210;2023-04-24T00:20:35;4.55;;;3.00;;
19605;SDS011;9950;50.168;8.210;2023-04-24T00:23:02;4.38;;;3.88;;
19605;SDS011;9950;50.168;8.210;2023-04-24T00:25:29;4.18;;;3.22;;
19605;SDS011;9950;50.168;8.210;2023-04-24T00:27:57;7.03;;;3.90;;
19605;SDS011;9950;50.168;8.210;2023-04-24T00:30:24;5.88;;;4.20;;
19605;SDS011;9950;50.168;8.210;2023-04-24T00:32:52;6.30;;;4.65;;
19605;SDS011;9950;50.168;8.210;2023-04-24T00:35:20;5.90;;;5.13;;
19605;SDS011;9950;50.168;8.210;2023-04-24T00:37:48;8.38;;;5.03;;
19605;SDS011;9950;50.168;8.210;2023-04-24T00:40:15;5.82;;;4.70;;
19605;SDS011;9950;50.168;8.210;2023-04-24T00:42:43;6.97;;;4.93;;
19605;SDS011;9950;50.168;8.210;2023-04-24T00:45:10;10.75;;;5.07;;
19605;SDS011;9950;50.168;8.210;2023-04-24T00:47:38;7.90;;;5.93;;
19605;SDS011;9950;50.168;8.210;2023-04-24T00:50:07;6.22;;;5.60;;
19605;SDS011;9950;50.168;8.210;2023-04-24T00:52:34;5.32;;;4.72;;
19605;SDS011;9950;50.168;8.210;2023-04-24T00:55:02;8.38;;;5.22;;
19605;SDS011;9950;50.168;8.210;2023-04-24T00:57:29;7.03;;;5.05;;
19605;SDS011;9950;50.168;8.210;2023-04-24T00:59:57;7.45;;;5.00;;
19605;SDS011;9950;50.168;8.210;2023-04-24T01:02:24;6.82;;;4.40;;
19605;SDS011;9950;50.168;8.210;2023-04-24T01:04:51;5.75;;;4.45;;
19605;SDS011;9950;50.168;8.210;2023-04-24T01:07:20;5.65;;;3.75;;
19605;SDS011;9950;50.168;8.210;2023-04-24T01:09:48;5.93;;;4.00;;
19605;SDS011;9950;50.168;8.210;2023-04-24T01:12:17;5.85;;;3.97;;
19605;SDS011;9950;50.168;8.210;2023-04-24T01:14:44;6.85;;;4.18;;
19605;SDS011;9950;50.168;8.210;2023-04-24T01:17:12;5.03;;;4.13;;
19605;SDS011;9950;50.168;8.210;2023-04-24T01:19:40;6.80;;;3.90;;
19605;SDS011;9950;50.168;8.210;2023-04-24T01:22:11;5.40;;;3.70;;
19605;SDS011;9950;50.168;8.210;2023-04-24T01:24:39;4.90;;;3.83;;
19605;SDS011;9950;50.168;8.210;2023-04-24T01:27:07;4.63;;;3.42;;
19605;SDS011;9950;50.168;8.210;2023-04-24T01:29:35;5.07;;;3.20;;
19605;SDS011;9950;50.168;8.210;2023-04-24T01:32:02;6.13;;;3.70;;
19605;SDS011;9950;50.168;8.210;2023-04-24T01:34:30;5.55;;;3.67;;
19605;SDS011;9950;50.168;8.210;2023-04-24T01:36:57;4.90;;;3.75;;
19605;SDS011;9950;50.168;8.210;2023-04-24T01:39:26;4.43;;;3.08;;
19605;SDS011;9950;50.168;8.210;2023-04-24T01:41:53;3.95;;;2.78;;
19605;SDS011;9950;50.168;8.210;2023-04-24T01:44:21;4.20;;;3.00;;
19605;SDS011;9950;50.168;8.210;2023-04-24T01:46:48;3.95;;;2.20;;
19605;SDS011;9950;50.168;8.210;2023-04-24T01:49:15;4.75;;;3.20;;
19605;SDS011;9950;50.168;8.210;2023-04-24T01:51:46;3.28;;;2.60;;
19605;SDS011;9950;50.168;8.210;2023-04-24T01:54:13;4.63;;;2.97;;
19605;SDS011;9950;50.168;8.210;2023-04-24T01:56:42;4.97;;;3.05;;
19605;SDS011;9950;50.168;8.210;2023-04-24T01:59:09;3.00;;;2.45;;
19605;SDS011;9950;50.168;8.210;2023-04-24T02:01:38;3.55;;;2.25;;
19605;SDS011;9950;50.168;8.210;2023-04-24T02:04:05;3.28;;;2.67;;
19605;SDS011;9950;50.168;8.210;2023-04-24T02:06:33;3.28;;;2.22;;
19605;SDS011;9950;50.168;8.210;2023-04-24T02:09:00;3.08;;;2.10;;
19605;SDS011;9950;50.168;8.210;2023-04-24T02:11:28;3.35;;;2.47;;
19605;SDS011;9950;50.168;8.210;2023-04-24T02:13:56;2.72;;;2.30;;
19605;SDS011;9950;50.168;8.210;2023-04-24T02:16:23;3.40;;;2.10;;
19605;SDS011;9950;50.168;8.210;2023-04-24T02:18:50;2.75;;;2.00;;
19605;SDS011;9950;50.168;8.210;2023-04-24T02:21:18;3.42;;;2.00;;
19605;SDS011;9950;50.168;8.210;2023-04-24T02:23:45;2.20;;;2.00;;
19605;SDS011;9950;50.168;8.210;2023-04-24T02:26:12;2.03;;;1.83;;
19605;SDS011;9950;50.168;8.210;2023-04-24T02:28:40;2.00;;;1.73;;
19605;SDS011;9950;50.168;8.210;2023-04-24T02:31:08;2.67;;;1.80;;
19605;SDS011;9950;50.168;8.210;2023-04-24T02:33:36;2.85;;;2.47;;
19605;SDS011;9950;50.168;8.210;2023-04-24T02:36:03;3.35;;;2.00;;
19605;SDS011;9950;50.168;8.210;2023-04-24T02:38:30;2.22;;;2.03;;
19605;SDS011;9950;50.168;8.210;2023-04-24T02:40:57;3.22;;;2.30;;
19605;SDS011;9950;50.168;8.210;2023-04-24T02:43:25;2.75;;;2.05;;
19605;SDS011;9950;50.168;8.210;2023-04-24T02:45:53;3.72;;;2.10;;
19605;SDS011;9950;50.168;8.210;2023-04-24T02:48:21;2.92;;;2.20;;
19605;SDS011;9950;50.168;8.210;2023-04-24T02:50:48;2.40;;;2.20;;
19605;SDS011;9950;50.168;8.210;2023-04-24T02:53:16;2.70;;;2.10;;
19605;SDS011;9950;50.168;8.210;2023-04-24T02:55:43;3.38;;;2.22;;
19605;SDS011;9950;50.168;8.210;2023-04-24T02:58:11;2.38;;;2.08;;
19605;SDS011;9950;50.168;8.210;2023-04-24T03:00:38;2.30;;;2.10;;
19605;SDS011;9950;50.168;8.210;2023-04-24T03:03:06;2.55;;;2.20;;
19605;SDS011;9950;50.168;8.210;2023-04-24T03:05:34;2.72;;;2.00;;
19605;SDS011;9950;50.168;8.210;2023-04-24T03:08:01;2.67;;;2.30;;
19605;SDS011;9950;50.168;8.210;2023-04-24T03:10:29;3.08;;;2.13;;
19605;SDS011;9950;50.168;8.210;2023-04-24T03:12:57;3.20;;;2.28;;
19605;SDS011;9950;50.168;8.210;2023-04-24T03:15:24;2.13;;;1.92;;
19605;SDS011;9950;50.168;8.210;2023-04-24T03:17:51;3.20;;;2.28;;
19605;SDS011;9950;50.168;8.210;2023-04-24T03:20:18;3.40;;;2.25;;
19605;SDS011;9950;50.168;8.210;2023-04-24T03:22:47;2.30;;;2.10;;
19605;SDS011;9950;50.168;8.210;2023-04-24T03:25:14;3.40;;;2.42;;
19605;SDS011;9950;50.168;8.210;2023-04-24T03:27:41;5.15;;;2.75;;
19605;SDS011;9950;50.168;8.210;2023-04-24T03:30:08;3.03;;;2.72;;
19605;SDS011;9950;50.168;8.210;2023-04-24T03:32:35;3.22;;;2.65;;
19605;SDS011;9950;50.168;8.210;2023-04-24T03:35:04;2.78;;;2.38;;
19605;SDS011;9950;50.168;8.210;2023-04-24T03:37:32;5.25;;;2.65;;
19605;SDS011;9950;50.168;8.210;2023-04-24T03:40:00;5.72;;;2.70;;
19605;SDS011;9950;50.168;8.210;2023-04-24T03:42:28;4.95;;;2.58;;
19605;SDS011;9950;50.168;8.210;2023-04-24T03:44:55;3.65;;;2.65;;
19605;SDS011;9950;50.168;8.210;2023-04-24T03:47:22;3.20;;;2.80;;
19605;SDS011;9950;50.168;8.210;2023-04-24T03:49:49;4.25;;;2.85;;
19605;SDS011;9950;50.168;8.210;2023-04-24T03:52:17;5.65;;;2.95;;
19605;SDS011;9950;50.168;8.210;2023-04-24T03:54:44;2.95;;;2.63;;
19605;SDS011;9950;50.168;8.210;2023-04-24T03:57:12;3.70;;;3.15;;
19605;SDS011;9950;50.168;8.210;2023-04-24T03:59:40;4.20;;;2.78;;
19605;SDS011;9950;50.168;8.210;2023-04-24T04:02:07;4.55;;;2.90;;
19605;SDS011;9950;50.168;8.210;2023-04-24T04:04:34;3.35;;;3.05;;
19605;SDS011;9950;50.168;8.210;2023-04-24T04:07:01;5.97;;;3.20;;
19605;SDS011;9950;50.168;8.210;2023-04-24T04:09:30;3.80;;;3.05;;
19605;SDS011;9950;50.168;8.210;2023-04-24T04:11:58;4.97;;;3.25;;
19605;SDS011;9950;50.168;8.210;2023-04-24T04:14:26;3.95;;;3.28;;
19605;SDS011;9950;50.168;8.210;2023-04-24T04:16:54;3.20;;;2.50;;
19605;SDS011;9950;50.168;8.210;2023-04-24T04:19:21;3.17;;;2.75;;
19605;SDS011;9950;50.168;8.210;2023-04-24T04:21:48;3.78;;;2.53;;
19605;SDS011;9950;50.168;8.210;2023-04-24T04:24:18;4.25;;;2.58;;
19605;SDS011;9950;50.168;8.210;2023-04-24T04:26:47;3.42;;;2.50;;
19605;SDS011;9950;50.168;8.210;2023-04-24T04:29:16;3.50;;;2.30;;
19605;SDS011;9950;50.168;8.210;2023-04-24T04:31:45;5.38;;;3.13;;
19605;SDS011;9950;50.168;8.210;2023-04-24T04:34:12;5.38;;;2.72;;
19605;SDS011;9950;50.168;8.210;2023-04-24T04:36:39;3.85;;;2.88;;
19605;SDS011;9950;50.168;8.210;2023-04-24T04:39:08;4.00;;;2.72;;
19605;SDS011;9950;50.168;8.210;2023-04-24T04:41:35;3.22;;;2.60;;
19605;SDS011;9950;50.168;8.210;2023-04-24T04:44:05;3.28;;;2.75;;
19605;SDS011;9950;50.168;8.210;2023-04-24T04:46:33;5.28;;;3.58;;
19605;SDS011;9950;50.168;8.210;2023-04-24T04:49:03;3.40;;;3.05;;
19605;SDS011;9950;50.168;8.210;2023-04-24T04:51:31;4.28;;;3.50;;
19605;SDS011;9950;50.168;8.210;2023-04-24T04:53:58;4.75;;;3.53;;
19605;SDS011;9950;50.168;8.210;2023-04-24T04:56:25;6.38;;;3.10;;
19605;SDS011;9950;50.168;8.210;2023-04-24T04:58:52;4.53;;;3.20;;
19605;SDS011;9950;50.168;8.210;2023-04-24T05:01:19;6.45;;;4.03;;
19605;SDS011;9950;50.168;8.210;2023-04-24T05:03:48;5.85;;;3.97;;
19605;SDS011;9950;50.168;8.210;2023-04-24T05:06:16;4.22;;;3.20;;
19605;SDS011;9950;50.168;8.210;2023-04-24T05:08:44;4.32;;;3.35;;
19605;SDS011;9950;50.168;8.210;2023-04-24T05:11:11;3.92;;;3.25;;
19605;SDS011;9950;50.168;8.210;2023-04-24T05:13:38;4.07;;;3.10;;
19605;SDS011;9950;50.168;8.210;2023-04-24T05:16:05;6.43;;;3.75;;
19605;SDS011;9950;50.168;8.210;2023-04-24T05:18:32;4.72;;;3.22;;
19605;SDS011;9950;50.168;8.210;2023-04-24T05:20:59;4.38;;;3.60;;
19605;SDS011;9950;50.168;8.210;2023-04-24T05:23:28;5.78;;;3.53;;
19605;SDS011;9950;50.168;8.210;2023-04-24T05:25:55;4.35;;;3.53;;
19605;SDS011;9950;50.168;8.210;2023-04-24T05:28:23;8.15;;;3.95;;
19605;SDS011;9950;50.168;8.210;2023-04-24T05:30:53;5.63;;;3.35;;
19605;SDS011;9950;50.168;8.210;2023-04-24T05:33:20;5.15;;;3.63;;
19605;SDS011;9950;50.168;8.210;2023-04-24T05:35:48;6.30;;;4.43;;
19605;SDS011;9950;50.168;8.210;2023-04-24T05:38:15;7.32;;;4.55;;
19605;SDS011;9950;50.168;8.210;2023-04-24T05:40:44;5.70;;;4.65;;
19605;SDS011;9950;50.168;8.210;2023-04-24T05:43:11;6.75;;;4.88;;
19605;SDS011;9950;50.168;8.210;2023-04-24T05:45:38;6.93;;;4.65;;
19605;SDS011;9950;50.168;8.210;2023-04-24T05:48:06;6.60;;;5.10;;
19605;SDS011;9950;50.168;8.210;2023-04-24T05:50:33;8.32;;;5.82;;
19605;SDS011;9950;50.168;8.210;2023-04-24T05:53:00;8.23;;;5.68;;
19605;SDS011;9950;50.168;8.210;2023-04-24T05:55:27;8.77;;;5.45;;
19605;SDS011;9950;50.168;8.210;2023-04-24T05:57:56;8.32;;;6.10;;
19605;SDS011;9950;50.168;8.210;2023-04-24T06:00:23;9.30;;;5.88;;
19605;SDS011;9950;50.168;8.210;2023-04-24T06:02:50;9.95;;;6.50;;
19605;SDS011;9950;50.168;8.210;2023-04-24T06:05:19;11.65;;;6.68;;
19605;SDS011;9950;50.168;8.210;2023-04-24T06:07:46;9.95;;;6.50;;
19605;SDS011;9950;50.168;8.210;2023-04-24T06:10:14;8.90;;;6.47;;
19605;SDS011;9950;50.168;8.210;2023-04-24T06:12:41;13.32;;;7.03;;
19605;SDS011;9950;50.168;8.210;2023-04-24T06:15:10;11.40;;;6.80;;
19605;SDS011;9950;50.168;8.210;2023-04-24T06:17:37;12.60;;;6.88;;
19605;SDS011;9950;50.168;8.210;2023-04-24T06:20:05;12.55;;;6.32;;
19605;SDS011;9950;50.168;8.210;2023-04-24T06:22:33;9.82;;;6.90;;
19605;SDS011;9950;50.168;8.210;2023-04-24T06:25:00;11.02;;;6.47;;
19605;SDS011;9950;50.168;8.210;2023-04-24T06:27:27;10.80;;;6.88;;
19605;SDS011;9950;50.168;8.210;2023-04-24T06:29:55;9.48;;;5.60;;
19605;SDS011;9950;50.168;8.210;2023-04-24T06:32:23;8.23;;;6.47;;
19605;SDS011;9950;50.168;8.210;2023-04-24T06:34:52;8.38;;;6.15;;
19605;SDS011;9950;50.168;8.210;2023-04-24T06:37:19;9.55;;;6.43;;
19605;SDS011;9950;50.168;8.210;2023-04-24T06:39:47;8.25;;;5.93;;
19605;SDS011;9950;50.168;8.210;2023-04-24T06:42:14;7.80;;;5.70;;
19605;SDS011;9950;50.168;8.210;2023-04-24T06:44:41;7.07;;;5.50;;
19605;SDS011;9950;50.168;8.210;2023-04-24T06:47:09;6.88;;;5.38;;
19605;SDS011;9950;50.168;8.210;2023-04-24T06:49:39;6.07;;;4.82;;
19605;SDS011;9950;50.168;8.210;2023-04-24T06:52:07;7.32;;;4.85;;
19605;SDS011;9950;50.168;8.210;2023-04-24T06:54:34;6.65;;;4.82;;
19605;SDS011;9950;50.168;8.210;2023-04-24T06:57:02;6.55;;;4.40;;
19605;SDS011;9950;50.168;8.210;2023-04-24T06:59:29;6.00;;;4.40;;
19605;SDS011;9950;50.168;8.210;2023-04-24T07:01:56;5.97;;;4.40;;
19605;SDS011;9950;50.168;8.210;2023-04-24T07:04:23;4.82;;;3.85;;
19605;SDS011;9950;50.168;8.210;2023-04-24T07:06:52;6.28;;;4.20;;
19605;SDS011;9950;50.168;8.210;2023-04-24T07:09:21;5.38;;;3.83;;
19605;SDS011;9950;50.168;8.210;2023-04-24T07:11:48;6.60;;;3.50;;
19605;SDS011;9950;50.168;8.210;2023-04-24T07:14:16;4.82;;;3.67;;
19605;SDS011;9950;50.168;8.210;2023-04-24T07:16:43;5.15;;;3.83;;
19605;SDS011;9950;50.168;8.210;2023-04-24T07:19:11;5.47;;;3.85;;
19605;SDS011;9950;50.168;8.210;2023-04-24T07:21:38;4.80;;;3.88;;
19605;SDS011;9950;50.168;8.210;2023-04-24T07:24:07;7.32;;;4.07;;
19605;SDS011;9950;50.168;8.210;2023-04-24T07:26:36;4.93;;;3.83;;
19605;SDS011;9950;50.168;8.210;2023-04-24T07:29:04;5.07;;;3.70;;
19605;SDS011;9950;50.168;8.210;2023-04-24T07:31:31;5.13;;;3.50;;
19605;SDS011;9950;50.168;8.210;2023-04-24T07:33:59;4.35;;;3.53;;
19605;SDS011;9950;50.168;8.210;2023-04-24T07:36:26;4.28;;;3.72;;
19605;SDS011;9950;50.168;8.210;2023-04-24T07:38:53;4.93;;;3.92;;
19605;SDS011;9950;50.168;8.210;2023-04-24T07:41:23;4.95;;;4.18;;
19605;SDS011;9950;50.168;8.210;2023-04-24T07:43:52;4.43;;;3.45;;
19605;SDS011;9950;50.168;8.210;2023-04-24T07:46:20;4.65;;;3.63;;
19605;SDS011;9950;50.168;8.210;2023-04-24T07:48:48;4.35;;;3.75;;
19605;SDS011;9950;50.168;8.210;2023-04-24T07:51:15;6.00;;;3.38;;
19605;SDS011;9950;50.168;8.210;2023-04-24T07:53:43;4.78;;;3.85;;
19605;SDS011;9950;50.168;8.210;2023-04-24T07:56:10;5.00;;;3.15;;
19605;SDS011;9950;50.168;8.210;2023-04-24T07:58:39;5.85;;;3.47;;
19605;SDS011;9950;50.168;8.210;2023-04-24T08:01:06;5.75;;;3.50;;
19605;SDS011;9950;50.168;8.210;2023-04-24T08:03:33;4.13;;;2.72;;
19605;SDS011;9950;50.168;8.210;2023-04-24T08:06:01;4.15;;;3.33;;
19605;SDS011;9950;50.168;8.210;2023-04-24T08:08:28;3.67;;;2.83;;
19605;SDS011;9950;50.168;8.210;2023-04-24T08:10:55;4.88;;;3.47;;
19605;SDS011;9950;50.168;8.210;2023-04-24T08:13:22;6.95;;;4.47;;
19605;SDS011;9950;50.168;8.210;2023-04-24T08:15:51;6.03;;;3.92;;
19605;SDS011;9950;50.168;8.210;2023-04-24T08:18:18;3.80;;;3.05;;
19605;SDS011;9950;50.168;8.210;2023-04-24T08:20:46;5.72;;;3.90;;
19605;SDS011;9950;50.168;8.210;2023-04-24T08:23:13;5.10;;;2.97;;
19605;SDS011;9950;50.168;8.210;2023-04-24T08:25:41;4.40;;;2.95;;
19605;SDS011;9950;50.168;8.210;2023-04-24T08:28:08;4.78;;;2.97;;
19605;SDS011;9950;50.168;8.210;2023-04-24T08:30:36;3.67;;;2.92;;
19605;SDS011;9950;50.168;8.210;2023-04-24T08:33:05;4.78;;;3.33;;
19605;SDS011;9950;50.168;8.210;2023-04-24T08:35:32;3.85;;;2.95;;
19605;SDS011;9950;50.168;8.210;2023-04-24T08:38:00;3.50;;;3.10;;
19605;SDS011;9950;50.168;8.210;2023-04-24T08:40:28;4.13;;;2.80;;
19605;SDS011;9950;50.168;8.210;2023-04-24T08:42:55;6.45;;;2.95;;
19605;SDS011;9950;50.168;8.210;2023-04-24T08:45:23;3.28;;;2.65;;
19605;SDS011;9950;50.168;8.210;2023-04-24T08:47:51;4.00;;;2.70;;
19605;SDS011;9950;50.168;8.210;2023-04-24T08:50:21;4.20;;;2.67;;
19605;SDS011;9950;50.168;8.210;2023-04-24T08:52:49;3.47;;;2.63;;
19605;SDS011;9950;50.168;8.210;2023-04-24T08:55:18;3.58;;;2.60;;
19605;SDS011;9950;50.168;8.210;2023-04-24T08:57:45;2.85;;;2.55;;
19605;SDS011;9950;50.168;8.210;2023-04-24T09:00:16;2.70;;;2.28;;
19605;SDS011;9950;50.168;8.210;2023-04-24T09:02:43;2.83;;;2.28;;
19605;SDS011;9950;50.168;8.210;2023-04-24T09:05:12;2.83;;;2.10;;
19605;SDS011;9950;50.168;8.210;2023-04-24T09:07:41;3.47;;;2.30;;
19605;SDS011;9950;50.168;8.210;2023-04-24T09:10:11;3.15;;;1.90;;
19605;SDS011;9950;50.168;8.210;2023-04-24T09:12:39;4.05;;;2.65;;
19605;SDS011;9950;50.168;8.210;2023-04-24T09:15:07;2.85;;;2.55;;
19605;SDS011;9950;50.168;8.210;2023-04-24T09:17:35;2.85;;;2.10;;
19605;SDS011;9950;50.168;8.210;2023-04-24T09:20:03;3.97;;;2.50;;
19605;SDS011;9950;50.168;8.210;2023-04-24T09:22:30;3.22;;;2.47;;
19605;SDS011;9950;50.168;8.210;2023-04-24T09:25:06;2.85;;;2.28;;
19605;SDS011;9950;50.168;8.210;2023-04-24T09:27:34;3.88;;;2.13;;
19605;SDS011;9950;50.168;8.210;2023-04-24T09:30:02;3.47;;;1.80;;
19605;SDS011;9950;50.168;8.210;2023-04-24T09:32:30;2.47;;;1.90;;
19605;SDS011;9950;50.168;8.210;2023-04-24T09:35:07;2.10;;;1.70;;
19605;SDS011;9950;50.168;8.210;2023-04-24T09:37:35;2.88;;;2.00;;
19605;SDS011;9950;50.168;8.210;2023-04-24T09:40:14;2.30;;;1.95;;
19605;SDS011;9950;50.168;8.210;2023-04-24T09:42:44;2.15;;;1.92;;
19605;SDS011;9950;50.168;8.210;2023-04-24T09:45:12;2.28;;;2.08;;
19605;SDS011;9950;50.168;8.210;2023-04-24T09:47:39;3.97;;;2.15;;
19605;SDS011;9950;50.168;8.210;2023-04-24T09:50:14;3.03;;;2.20;;
19605;SDS011;9950;50.168;8.210;2023-04-24T09:52:42;2.95;;;2.08;;
19605;SDS011;9950;50.168;8.210;2023-04-24T09:55:18;2.72;;;2.10;;
19605;SDS011;9950;50.168;8.210;2023-04-24T09:57:52;2.85;;;2.05;;
19605;SDS011;9950;50.168;8.210;2023-04-24T10:00:24;3.53;;;2.03;;
19605;SDS011;9950;50.168;8.210;2023-04-24T10:03:01;1.95;;;1.70;;
19605;SDS011;9950;50.168;8.210;2023-04-24T10:05:29;5.03;;;2.00;;
19605;SDS011;9950;50.168;8.210;2023-04-24T10:07:57;1.63;;;1.52;;
19605;SDS011;9950;50.168;8.210;2023-04-24T10:10:25;3.05;;;1.70;;
19605;SDS011;9950;50.168;8.210;2023-04-24T10:12:53;2.88;;;1.90;;
19605;SDS011;9950;50.168;8.210;2023-04-24T10:15:20;2.17;;;1.80;;
19605;SDS011;9950;50.168;8.210;2023-04-24T10:17:48;2.20;;;1.85;;
19605;SDS011;9950;50.168;8.210;2023-04-24T10:20:18;2.42;;;2.10;;
19605;SDS011;9950;50.168;8.210;2023-04-24T10:22:46;2.20;;;2.00;;
19605;SDS011;9950;50.168;8.210;2023-04-24T10:25:17;4.00;;;2.67;;
19605;SDS011;9950;50.168;8.210;2023-04-24T10:27:47;2.35;;;1.95;;
19605;SDS011;9950;50.168;8.210;2023-04-24T10:30:15;4.05;;;2.13;;
19605;SDS011;9950;50.168;8.210;2023-04-24T10:32:42;2.92;;;2.35;;
19605;SDS011;9950;50.168;8.210;2023-04-24T10:35:09;2.35;;;2.15;;
19605;SDS011;9950;50.168;8.210;2023-04-24T10:37:39;2.38;;;2.13;;
19605;SDS011;9950;50.168;8.210;2023-04-24T10:40:07;2.75;;;2.20;;
19605;SDS011;9950;50.168;8.210;2023-04-24T10:42:35;2.63;;;2.20;;
19605;SDS011;9950;50.168;8.210;2023-04-24T10:45:06;2.88;;;2.28;;
19605;SDS011;9950;50.168;8.210;2023-04-24T10:47:39;3.80;;;2.00;;
19605;SDS011;9950;50.168;8.210;2023-04-24T10:50:08;3.00;;;2.35;;
19605;SDS011;9950;50.168;8.210;2023-04-24T10:55:41;11.88;;;8.50;;
19605;SDS011;9950;50.168;8.210;2023-04-24T10:58:08;2.65;;;2.17;;
19605;SDS011;9950;50.168;8.210;2023-04-24T11:00:38;2.38;;;2.10;;
19605;SDS011;9950;50.168;8.210;2023-04-24T11:03:05;3.22;;;2.30;;
19605;SDS011;9950;50.168;8.210;2023-04-24T11:08:22;3.20;;;2.42;;
19605;SDS011;9950;50.168;8.210;2023-04-24T11:10:54;3.83;;;2.55;;
19605;SDS011;9950;50.168;8.210;2023-04-24T11:13:23;2.95;;;2.25;;
19605;SDS011;9950;50.168;8.210;2023-04-24T11:18:38;3.55;;;2.80;;
19605;SDS011;9950;50.168;8.210;2023-04-24T11:21:09;4.72;;;2.53;;
19605;SDS011;9950;50.168;8.210;2023-04-24T11:23:37;3.03;;;2.60;;
19605;SDS011;9950;50.168;8.210;2023-04-24T11:26:10;5.68;;;2.95;;
19605;SDS011;9950;50.168;8.210;2023-04-24T11:28:43;5.63;;;2.95;;
19605;SDS011;9950;50.168;8.210;2023-04-24T11:33:57;3.45;;;2.83;;
19605;SDS011;9950;50.168;8.210;2023-04-24T11:36:32;6.70;;;2.63;;
19605;SDS011;9950;50.168;8.210;2023-04-24T11:38:59;3.65;;;2.58;;
19605;SDS011;9950;50.168;8.210;2023-04-24T11:41:26;5.43;;;2.63;;
19605;SDS011;9950;50.168;8.210;2023-04-24T11:43:54;3.45;;;2.55;;
19605;SDS011;9950;50.168;8.210;2023-04-24T11:46:22;4.70;;;3.05;;
19605;SDS011;9950;50.168;8.210;2023-04-24T11:48:49;3.20;;;2.67;;
19605;SDS011;9950;50.168;8.210;2023-04-24T11:51:18;3.83;;;2.67;;
19605;SDS011;9950;50.168;8.210;2023-04-24T11:53:45;5.03;;;3.22;;
19605;SDS011;9950;50.168;8.210;2023-04-24T11:56:16;5.00;;;3.30;;
19605;SDS011;9950;50.168;8.210;2023-04-24T11:58:45;3.97;;;3.30;;
19605;SDS011;9950;50.168;8.210;2023-04-24T12:01:12;4.30;;;3.50;;
19605;SDS011;9950;50.168;8.210;2023-04-24T12:03:40;4.10;;;3.28;;
19605;SDS011;9950;50.168;8.210;2023-04-24T12:06:10;6.88;;;3.67;;
19605;SDS011;9950;50.168;8.210;2023-04-24T12:08:40;4.47;;;3.40;;
19605;SDS011;9950;50.168;8.210;2023-04-24T12:11:07;7.13;;;3.47;;
19605;SDS011;9950;50.168;8.210;2023-04-24T12:13:34;6.13;;;3.30;;
19605;SDS011;9950;50.168;8.210;2023-04-24T12:16:02;6.95;;;4.28;;
19605;SDS011;9950;50.168;8.210;2023-04-24T12:18:30;4.00;;;3.25;;
19605;SDS011;9950;50.168;8.210;2023-04-24T12:23:42;7.30;;;3.60;;
19605;SDS011;9950;50.168;8.210;2023-04-24T12:26:09;5.20;;;3.83;;
19605;SDS011;9950;50.168;8.210;2023-04-24T12:28:37;8.00;;;3.88;;
19605;SDS011;9950;50.168;8.210;2023-04-24T12:31:04;5.68;;;4.07;;
19605;SDS011;9950;50.168;8.210;2023-04-24T12:33:32;5.03;;;3.90;;
19605;SDS011;9950;50.168;8.210;2023-04-24T12:36:00;4.47;;;3.95;;
19605;SDS011;9950;50.168;8.210;2023-04-24T12:38:28;6.15;;;3.80;;
19605;SDS011;9950;50.168;8.210;2023-04-24T12:41:04;6.05;;;3.85;;
19605;SDS011;9950;50.168;8.210;2023-04-24T12:43:31;4.97;;;3.72;;
19605;SDS011;9950;50.168;8.210;2023-04-24T12:45:58;5.43;;;3.83;;
19605;SDS011;9950;50.168;8.210;2023-04-24T12:48:26;4.05;;;3.55;;
19605;SDS011;9950;50.168;8.210;2023-04-24T12:50:53;7.43;;;3.90;;
19605;SDS011;9950;50.168;8.210;2023-04-24T12:53:21;5.95;;;3.83;;
19605;SDS011;9950;50.168;8.210;2023-04-24T12:55:51;5.13;;;3.63;;
19605;SDS011;9950;50.168;8.210;2023-04-24T12:58:20;7.28;;;4.35;;
19605;SDS011;9950;50.168;8.210;2023-04-24T13:00:47;6.20;;;3.50;;
19605;SDS011;9950;50.168;8.210;2023-04-24T13:03:15;5.57;;;3.65;;
19605;SDS011;9950;50.168;8.210;2023-04-24T13:05:42;5.30;;;3.97;;
19605;SDS011;9950;50.168;8.210;2023-04-24T13:08:10;6.70;;;3.85;;
19605;SDS011;9950;50.168;8.210;2023-04-24T13:10:38;5.68;;;4.20;;
19605;SDS011;9950;50.168;8.210;2023-04-24T13:13:05;6.25;;;4.35;;
19605;SDS011;9950;50.168;8.210;2023-04-24T13:15:34;4.78;;;3.92;;
19605;SDS011;9950;50.168;8.210;2023-04-24T13:18:02;6.43;;;4.20;;
19605;SDS011;9950;50.168;8.210;2023-04-24T13:20:29;6.55;;;4.53;;
19605;SDS011;9950;50.168;8.210;2023-04-24T13:22:56;10.52;;;4.55;;
19605;SDS011;9950;50.168;8.210;2023-04-24T13:25:24;9.30;;;4.55;;
19605;SDS011;9950;50.168;8.210;2023-04-24T13:27:52;5.85;;;3.92;;
19605;SDS011;9950;50.168;8.210;2023-04-24T13:30:19;5.50;;;3.92;;
19605;SDS011;9950;50.168;8.210;2023-04-24T13:32:47;6.13;;;3.80;;
19605;SDS011;9950;50.168;8.210;2023-04-24T13:35:15;6.35;;;3.80;;
19605;SDS011;9950;50.168;8.210;2023-04-24T13:37:42;6.25;;;4.40;;
19605;SDS011;9950;50.168;8.210;2023-04-24T13:40:10;4.63;;;3.80;;
19605;SDS011;9950;50.168;8.210;2023-04-24T13:42:37;7.25;;;4.03;;
19605;SDS011;9950;50.168;8.210;2023-04-24T13:45:05;5.68;;;4.18;;
19605;SDS011;9950;50.168;8.210;2023-04-24T13:47:33;5.72;;;3.70;;
19605;SDS011;9950;50.168;8.210;2023-04-24T13:50:02;6.40;;;3.55;;
19605;SDS011;9950;50.168;8.210;2023-04-24T13:52:30;8.18;;;3.90;;
19605;SDS011;9950;50.168;8.210;2023-04-24T13:54:57;5.32;;;3.67;;
19605;SDS011;9950;50.168;8.210;2023-04-24T13:57:24;7.22;;;3.95;;
19605;SDS011;9950;50.168;8.210;2023-04-24T13:59:51;7.93;;;4.30;;
19605;SDS011;9950;50.168;8.210;2023-04-24T14:02:20;5.95;;;3.65;;
19605;SDS011;9950;50.168;8.210;2023-04-24T14:04:47;5.82;;;3.67;;
19605;SDS011;9950;50.168;8.210;2023-04-24T14:07:16;7.18;;;4.03;;
19605;SDS011;9950;50.168;8.210;2023-04-24T14:09:43;5.35;;;4.18;;
19605;SDS011;9950;50.168;8.210;2023-04-24T14:12:10;6.90;;;4.07;;
19605;SDS011;9950;50.168;8.210;2023-04-24T14:14:37;6.78;;;4.05;;
19605;SDS011;9950;50.168;8.210;2023-04-24T14:17:05;6.78;;;3.72;;
19605;SDS011;9950;50.168;8.210;2023-04-24T14:19:32;7.45;;;4.00;;
19605;SDS011;9950;50.168;8.210;2023-04-24T14:22:00;6.85;;;3.85;;
19605;SDS011;9950;50.168;8.210;2023-04-24T14:24:28;5.00;;;2.83;;
19605;SDS011;9950;50.168;8.210;2023-04-24T14:26:56;4.47;;;3.33;;
19605;SDS011;9950;50.168;8.210;2023-04-24T14:29:23;4.43;;;3.40;;
19605;SDS011;9950;50.168;8.210;2023-04-24T14:31:51;5.80;;;3.50;;
19605;SDS011;9950;50.168;8.210;2023-04-24T14:34:18;4.95;;;3.40;;
19605;SDS011;9950;50.168;8.210;2023-04-24T14:36:46;5.22;;;3.40;;
19605;SDS011;9950;50.168;8.210;2023-04-24T14:39:13;8.45;;;3.60;;
19605;SDS011;9950;50.168;8.210;2023-04-24T14:41:41;5.50;;;3.70;;
19605;SDS011;9950;50.168;8.210;2023-04-24T14:44:09;6.65;;;3.33;;
19605;SDS011;9950;50.168;8.210;2023-04-24T14:46:36;6.57;;;3.72;;
19605;SDS011;9950;50.168;8.210;2023-04-24T14:49:03;4.60;;;2.97;;
19605;SDS011;9950;50.168;8.210;2023-04-24T14:51:34;8.77;;;3.47;;
19605;SDS011;9950;50.168;8.210;2023-04-24T14:54:01;4.57;;;3.20;;
19605;SDS011;9950;50.168;8.210;2023-04-24T14:56:29;8.00;;;3.45;;
19605;SDS011;9950;50.168;8.210;2023-04-24T14:58:58;4.72;;;3.78;;
19605;SDS011;9950;50.168;8.210;2023-04-24T15:01:25;5.70;;;3.40;;
19605;SDS011;9950;50.168;8.210;2023-04-24T15:03:52;4.65;;;3.60;;
19605;SDS011;9950;50.168;8.210;2023-04-24T15:06:19;5.10;;;3.53;;
19605;SDS011;9950;50.168;8.210;2023-04-24T15:08:47;5.78;;;3.50;;
19605;SDS011;9950;50.168;8.210;2023-04-24T15:11:14;5.97;;;3.65;;
19605;SDS011;9950;50.168;8.210;2023-04-24T15:13:41;4.95;;;3.38;;
19605;SDS011;9950;50.168;8.210;2023-04-24T15:16:11;6.45;;;3.72;;
19605;SDS011;9950;50.168;8.210;2023-04-24T15:18:38;7.20;;;3.33;;